sensor_id;sensor_type;location;lat;lon;timestamp;temperature;humidity
55648;DHT22;45266;48.756;9.246;2023-04-24T00:00:06;9.90;99.90
55648;DHT22;45266;48.756;9.246;2023-04-24T00:01:10;9.90;99.90
55648;DHT22;45266;48.756;9.246;2023-04-24T00:02:14;9.90;99.90
55648;DHT22;45266;48.756;9.246;2023-04-24T00:03:29;9.90;99.90
55648;DHT22;45266;48.756;9.246;2023-04-24T00:04:31;9.90;99.90
55648;DHT22;45266;48.756;9.246;2023-04-24T00:05:33;9.90;99.90
55648;DHT22;45266;48.756;9.246;2023-04-24T00:06:36;9.90;99.90
55648;DHT22;45266;48.756;9.246;2023-04-24T00:07:38;9.90;99.90
55648;DHT22;45266;48.756;9.246;2023-04-24T00:08:40;9.90;99.90
55648;DHT22;45266;48.756;9.246;2023-04-24T00:09:42;9.90;99.90
55648;DHT22;45266;48.756;9.246;2023-04-24T00:10:45;9.90;99.90
55648;DHT22;45266;48.756;9.246;2023-04-24T00:11:46;9.90;99.90
55648;DHT22;45266;48.756;9.246;2023-04-24T00:12:48;9.90;99.90
55648;DHT22;45266;48.756;9.246;2023-04-24T00:13:50;9.90;99.90
55648;DHT22;45266;48.756;9.246;2023-04-24T00:14:52;9.90;99.90
55648;DHT22;45266;48.756;9.246;2023-04-24T00:15:55;9.90;99.90
55648;DHT22;45266;48.756;9.246;2023-04-24T00:16:57;9.90;99.90
55648;DHT22;45266;48.756;9.246;2023-04-24T00:17:58;9.90;99.90
55648;DHT22;45266;48.756;9.246;2023-04-24T00:19:02;9.90;99.90
55648;DHT22;45266;48.756;9.246;2023-04-24T00:20:05;9.90;99.90
55648;DHT22;45266;48.756;9.246;2023-04-24T00:21:08;9.90;99.90
55648;DHT22;45266;48.756;9.246;2023-04-24T00:22:10;9.90;99.90
55648;DHT22;45266;48.756;9.246;2023-04-24T00:23:12;9.90;99.90
55648;DHT22;45266;48.756;9.246;2023-04-24T00:24:14;9.90;99.90
55648;DHT22;45266;48.756;9.246;2023-04-24T00:25:16;9.90;99.90
55648;DHT22;45266;48.756;9.246;2023-04-24T00:26:18;9.90;99.90
55648;DHT22;45266;48.756;9.246;2023-04-24T00:27:19;9.90;99.90
55648;DHT22;45266;48.756;9.246;2023-04-24T00:28:21;9.90;99.90
55648;DHT22;45266;48.756;9.246;2023-04-24T00:29:23;9.90;99.90
55648;DHT22;45266;48.756;9.246;2023-04-24T00:30:25;9.90;99.90
55648;DHT22;45266;48.756;9.246;2023-04-24T00:31:27;9.90;99.90
55648;DHT22;45266;48.756;9.246;2023-04-24T00:32:28;10.00;99.90
55648;DHT22;45266;48.756;9.246;2023-04-24T00:33:30;10.00;99.90
55648;DHT22;45266;48.756;9.246;2023-04-24T00:34:32;9.90;99.90
55648;DHT22;45266;48.756;9.246;2023-04-24T00:35:34;9.90;99.90
55648;DHT22;45266;48.756;9.246;2023-04-24T00:36:36;9.90;99.90
55648;DHT22;45266;48.756;9.246;2023-04-24T00:37:37;9.90;99.90
55648;DHT22;45266;48.756;9.246;2023-04-24T00:38:39;9.90;99.90
55648;DHT22;45266;48.756;9.246;2023-04-24T00:39:41;9.90;99.90
55648;DHT22;45266;48.756;9.246;2023-04-24T00:40:44;9.90;99.90
55648;DHT22;45266;48.756;9.246;2023-04-24T00:41:46;9.90;99.90
55648;DHT22;45266;48.756;9.246;2023-04-24T00:42:49;9.80;99.90
55648;DHT22;45266;48.756;9.246;2023-04-24T00:43:52;9.80;99.90
55648;DHT22;45266;48.756;9.246;2023-04-24T00:44:54;9.90;99.90
55648;DHT22;45266;48.756;9.246;2023-04-24T00:45:57;9.90;99.90
55648;DHT22;45266;48.756;9.246;2023-04-24T00:46:59;9.90;99.90
55648;DHT22;45266;48.756;9.246;2023-04-24T00:48:01;9.90;99.90
55648;DHT22;45266;48.756;9.246;2023-04-24T00:49:05;9.90;99.90
55648;DHT22;45266;48.756;9.246;2023-04-24T00:50:07;9.90;99.90
55648;DHT22;45266;48.756;9.246;2023-04-24T00:51:09;9.90;99.90
55648;DHT22;45266;48.756;9.246;2023-04-24T00:52:11;9.90;99.90
55648;DHT22;45266;48.756;9.246;2023-04-24T00:53:14;9.90;99.90
55648;DHT22;45266;48.756;9.246;2023-04-24T00:54:16;9.90;99.90
55648;DHT22;45266;48.756;9.246;2023-04-24T00:55:18;9.90;99.90
55648;DHT22;45266;48.756;9.246;2023-04-24T00:56:19;9.90;99.90
55648;DHT22;45266;48.756;9.246;2023-04-24T00:57:21;9.90;99.90
55648;DHT22;45266;48.756;9.246;2023-04-24T00:58:25;9.90;99.90
55648;DHT22;45266;48.756;9.246;2023-04-24T00:59:27;9.90;99.90
55648;DHT22;45266;48.756;9.246;2023-04-24T01:00:29;9.90;99.90
55648;DHT22;45266;48.756;9.246;2023-04-24T01:01:32;9.90;99.90
55648;DHT22;45266;48.756;9.246;2023-04-24T01:02:34;9.90;99.90
55648;DHT22;45266;48.756;9.246;2023-04-24T01:03:36;9.90;99.90
55648;DHT22;45266;48.756;9.246;2023-04-24T01:04:39;9.90;99.90
55648;DHT22;45266;48.756;9.246;2023-04-24T01:05:42;10.00;99.90
55648;DHT22;45266;48.756;9.246;2023-04-24T01:06:44;10.00;99.90
55648;DHT22;45266;48.756;9.246;2023-04-24T01:07:47;9.90;99.90
55648;DHT22;45266;48.756;9.246;2023-04-24T01:08:50;10.00;99.90
55648;DHT22;45266;48.756;9.246;2023-04-24T01:09:52;9.90;99.90
55648;DHT22;45266;48.756;9.246;2023-04-24T01:10:55;9.90;99.90
55648;DHT22;45266;48.756;9.246;2023-04-24T01:11:58;9.90;99.90
55648;DHT22;45266;48.756;9.246;2023-04-24T01:13:00;10.00;99.90
55648;DHT22;45266;48.756;9.246;2023-04-24T01:14:01;10.00;99.90
55648;DHT22;45266;48.756;9.246;2023-04-24T01:15:04;10.00;99.90
55648;DHT22;45266;48.756;9.246;2023-04-24T01:16:07;10.00;99.90
55648;DHT22;45266;48.756;9.246;2023-04-24T01:17:09;10.00;99.90
55648;DHT22;45266;48.756;9.246;2023-04-24T01:18:11;10.00;99.90
55648;DHT22;45266;48.756;9.246;2023-04-24T01:19:22;10.00;99.90
55648;DHT22;45266;48.756;9.246;2023-04-24T01:20:24;10.00;99.90
55648;DHT22;45266;48.756;9.246;2023-04-24T01:21:29;10.00;99.90
55648;DHT22;45266;48.756;9.246;2023-04-24T01:22:33;10.00;99.90
55648;DHT22;45266;48.756;9.246;2023-04-24T01:23:51;10.00;99.90
55648;DHT22;45266;48.756;9.246;2023-04-24T01:24:53;10.00;99.90
55648;DHT22;45266;48.756;9.246;2023-04-24T01:25:55;10.00;99.90
55648;DHT22;45266;48.756;9.246;2023-04-24T01:26:57;10.10;99.90
55648;DHT22;45266;48.756;9.246;2023-04-24T01:27:59;10.00;99.90
55648;DHT22;45266;48.756;9.246;2023-04-24T01:29:02;10.00;99.90
55648;DHT22;45266;48.756;9.246;2023-04-24T01:30:05;10.00;99.90
55648;DHT22;45266;48.756;9.246;2023-04-24T01:31:07;10.00;99.90
55648;DHT22;45266;48.756;9.246;2023-04-24T01:32:09;10.00;99.90
55648;DHT22;45266;48.756;9.246;2023-04-24T01:33:11;10.00;99.90
55648;DHT22;45266;48.756;9.246;2023-04-24T01:34:13;10.00;99.90
55648;DHT22;45266;48.756;9.246;2023-04-24T01:35:15;10.00;99.90
55648;DHT22;45266;48.756;9.246;2023-04-24T01:36:18;10.00;99.90
55648;DHT22;45266;48.756;9.246;2023-04-24T01:37:20;10.00;99.90
55648;DHT22;45266;48.756;9.246;2023-04-24T01:38:22;10.00;99.90
55648;DHT22;45266;48.756;9.246;2023-04-24T01:39:24;10.00;99.90
55648;DHT22;45266;48.756;9.246;2023-04-24T01:40:27;10.00;99.90
55648;DHT22;45266;48.756;9.246;2023-04-24T01:41:30;10.00;99.90
55648;DHT22;45266;48.756;9.246;2023-04-24T01:42:31;10.00;99.90
55648;DHT22;45266;48.756;9.246;2023-04-24T01:43:33;10.00;99.90
55648;DHT22;45266;48.756;9.246;2023-04-24T01:44:35;10.00;99.90
55648;DHT22;45266;48.756;9.246;2023-04-24T01:45:37;10.00;99.90
55648;DHT22;45266;48.756;9.246;2023-04-24T01:46:39;10.00;99.90
55648;DHT22;45266;48.756;9.246;2023-04-24T01:47:41;9.90;99.90
55648;DHT22;45266;48.756;9.246;2023-04-24T01:48:45;10.00;99.90
55648;DHT22;45266;48.756;9.246;2023-04-24T01:49:48;9.90;99.90
55648;DHT22;45266;48.756;9.246;2023-04-24T01:50:49;9.90;99.90
55648;DHT22;45266;48.756;9.246;2023-04-24T01:51:51;10.00;99.90
55648;DHT22;45266;48.756;9.246;2023-04-24T01:52:53;9.90;99.90
55648;DHT22;45266;48.756;9.246;2023-04-24T01:53:55;9.90;99.90
55648;DHT22;45266;48.756;9.246;2023-04-24T01:54:59;9.90;99.90
55648;DHT22;45266;48.756;9.246;2023-04-24T01:56:02;9.90;99.90
55648;DHT22;45266;48.756;9.246;2023-04-24T01:57:05;9.90;99.90
55648;DHT22;45266;48.756;9.246;2023-04-24T01:58:07;9.90;99.90
55648;DHT22;45266;48.756;9.246;2023-04-24T01:59:12;9.90;99.90
55648;DHT22;45266;48.756;9.246;2023-04-24T02:00:14;9.90;99.90
55648;DHT22;45266;48.756;9.246;2023-04-24T02:01:24;9.90;99.90
55648;DHT22;45266;48.756;9.246;2023-04-24T02:02:26;9.90;99.90
55648;DHT22;45266;48.756;9.246;2023-04-24T02:03:31;9.90;99.90
55648;DHT22;45266;48.756;9.246;2023-04-24T02:04:33;9.90;99.90
55648;DHT22;45266;48.756;9.246;2023-04-24T02:05:35;9.90;99.90
55648;DHT22;45266;48.756;9.246;2023-04-24T02:06:37;9.90;99.90
55648;DHT22;45266;48.756;9.246;2023-04-24T02:07:39;9.90;99.90
55648;DHT22;45266;48.756;9.246;2023-04-24T02:08:41;9.90;99.90
55648;DHT22;45266;48.756;9.246;2023-04-24T02:09:43;9.90;99.90
55648;DHT22;45266;48.756;9.246;2023-04-24T02:10:45;9.80;99.90
55648;DHT22;45266;48.756;9.246;2023-04-24T02:11:47;9.80;99.90
55648;DHT22;45266;48.756;9.246;2023-04-24T02:12:48;9.80;99.90
55648;DHT22;45266;48.756;9.246;2023-04-24T02:13:50;9.80;99.90
55648;DHT22;45266;48.756;9.246;2023-04-24T02:14:53;9.80;99.90
55648;DHT22;45266;48.756;9.246;2023-04-24T02:15:54;9.80;99.90
55648;DHT22;45266;48.756;9.246;2023-04-24T02:16:56;9.80;99.90
55648;DHT22;45266;48.756;9.246;2023-04-24T02:17:58;9.70;99.90
55648;DHT22;45266;48.756;9.246;2023-04-24T02:19:00;9.80;99.90
55648;DHT22;45266;48.756;9.246;2023-04-24T02:20:02;9.80;99.90
55648;DHT22;45266;48.756;9.246;2023-04-24T02:21:03;9.80;99.90
55648;DHT22;45266;48.756;9.246;2023-04-24T02:22:05;9.80;99.90
55648;DHT22;45266;48.756;9.246;2023-04-24T02:23:07;9.80;99.90
55648;DHT22;45266;48.756;9.246;2023-04-24T02:24:09;9.80;99.90
55648;DHT22;45266;48.756;9.246;2023-04-24T02:25:11;9.80;99.90
55648;DHT22;45266;48.756;9.246;2023-04-24T02:26:13;9.80;99.90
55648;DHT22;45266;48.756;9.246;2023-04-24T02:27:15;9.80;99.90
55648;DHT22;45266;48.756;9.246;2023-04-24T02:28:17;9.80;99.90
55648;DHT22;45266;48.756;9.246;2023-04-24T02:29:19;9.80;99.90
55648;DHT22;45266;48.756;9.246;2023-04-24T02:30:21;9.80;99.90
55648;DHT22;45266;48.756;9.246;2023-04-24T02:31:23;9.90;99.90
55648;DHT22;45266;48.756;9.246;2023-04-24T02:32:25;9.80;99.90
55648;DHT22;45266;48.756;9.246;2023-04-24T02:33:27;9.80;99.90
55648;DHT22;45266;48.756;9.246;2023-04-24T02:34:28;9.80;99.90
55648;DHT22;45266;48.756;9.246;2023-04-24T02:35:30;9.70;99.90
55648;DHT22;45266;48.756;9.246;2023-04-24T02:36:32;9.70;99.90
55648;DHT22;45266;48.756;9.246;2023-04-24T02:37:34;9.70;99.90
55648;DHT22;45266;48.756;9.246;2023-04-24T02:38:35;9.70;99.90
55648;DHT22;45266;48.756;9.246;2023-04-24T02:39:37;9.70;99.90
55648;DHT22;45266;48.756;9.246;2023-04-24T02:40:39;9.70;99.90
55648;DHT22;45266;48.756;9.246;2023-04-24T02:41:41;9.70;99.90
55648;DHT22;45266;48.756;9.246;2023-04-24T02:42:43;9.70;99.90
55648;DHT22;45266;48.756;9.246;2023-04-24T02:43:45;9.70;99.90
55648;DHT22;45266;48.756;9.246;2023-04-24T02:44:46;9.70;99.90
55648;DHT22;45266;48.756;9.246;2023-04-24T02:45:48;9.70;99.90
55648;DHT22;45266;48.756;9.246;2023-04-24T02:46:50;9.70;99.90
55648;DHT22;45266;48.756;9.246;2023-04-24T02:47:52;9.70;99.90
55648;DHT22;45266;48.756;9.246;2023-04-24T02:48:54;9.70;99.90
55648;DHT22;45266;48.756;9.246;2023-04-24T02:49:55;9.70;99.90
55648;DHT22;45266;48.756;9.246;2023-04-24T02:50:57;9.70;99.90
55648;DHT22;45266;48.756;9.246;2023-04-24T02:51:59;9.70;99.90
55648;DHT22;45266;48.756;9.246;2023-04-24T02:53:01;9.70;99.90
55648;DHT22;45266;48.756;9.246;2023-04-24T02:54:03;9.70;99.90
55648;DHT22;45266;48.756;9.246;2023-04-24T02:55:05;9.70;99.90
55648;DHT22;45266;48.756;9.246;2023-04-24T02:56:07;9.70;99.90
55648;DHT22;45266;48.756;9.246;2023-04-24T02:57:09;9.70;99.90
55648;DHT22;45266;48.756;9.246;2023-04-24T02:58:10;9.70;99.90
55648;DHT22;45266;48.756;9.246;2023-04-24T02:59:14;9.70;99.90
55648;DHT22;45266;48.756;9.246;2023-04-24T03:00:16;9.70;99.90
55648;DHT22;45266;48.756;9.246;2023-04-24T03:01:18;9.80;99.90
55648;DHT22;45266;48.756;9.246;2023-04-24T03:02:19;9.80;99.90
55648;DHT22;45266;48.756;9.246;2023-04-24T03:03:22;9.80;99.90
55648;DHT22;45266;48.756;9.246;2023-04-24T03:04:24;9.80;99.90
55648;DHT22;45266;48.756;9.246;2023-04-24T03:05:26;9.80;99.90
55648;DHT22;45266;48.756;9.246;2023-04-24T03:06:28;9.80;99.90
55648;DHT22;45266;48.756;9.246;2023-04-24T03:07:33;9.80;99.90
55648;DHT22;45266;48.756;9.246;2023-04-24T03:08:35;9.80;99.90
55648;DHT22;45266;48.756;9.246;2023-04-24T03:09:36;9.80;99.90
55648;DHT22;45266;48.756;9.246;2023-04-24T03:10:38;9.90;99.90
55648;DHT22;45266;48.756;9.246;2023-04-24T03:11:40;9.80;99.90
55648;DHT22;45266;48.756;9.246;2023-04-24T03:12:42;9.80;99.90
55648;DHT22;45266;48.756;9.246;2023-04-24T03:13:43;9.90;99.90
55648;DHT22;45266;48.756;9.246;2023-04-24T03:14:45;9.90;99.90
55648;DHT22;45266;48.756;9.246;2023-04-24T03:15:47;9.90;99.90
55648;DHT22;45266;48.756;9.246;2023-04-24T03:16:49;10.00;99.90
55648;DHT22;45266;48.756;9.246;2023-04-24T03:17:51;9.90;99.90
55648;DHT22;45266;48.756;9.246;2023-04-24T03:18:57;9.90;99.90
55648;DHT22;45266;48.756;9.246;2023-04-24T03:19:58;9.90;99.90
55648;DHT22;45266;48.756;9.246;2023-04-24T03:21:00;9.90;99.90
55648;DHT22;45266;48.756;9.246;2023-04-24T03:22:03;9.90;99.90
55648;DHT22;45266;48.756;9.246;2023-04-24T03:23:04;9.90;99.90
55648;DHT22;45266;48.756;9.246;2023-04-24T03:24:08;9.90;99.90
55648;DHT22;45266;48.756;9.246;2023-04-24T03:25:10;9.90;99.90
55648;DHT22;45266;48.756;9.246;2023-04-24T03:26:12;9.90;99.90
55648;DHT22;45266;48.756;9.246;2023-04-24T03:27:13;9.90;99.90
55648;DHT22;45266;48.756;9.246;2023-04-24T03:28:15;9.90;99.90
55648;DHT22;45266;48.756;9.246;2023-04-24T03:29:17;9.90;99.90
55648;DHT22;45266;48.756;9.246;2023-04-24T03:30:19;9.90;99.90
55648;DHT22;45266;48.756;9.246;2023-04-24T03:31:20;9.90;99.90
55648;DHT22;45266;48.756;9.246;2023-04-24T03:32:22;9.90;99.90
55648;DHT22;45266;48.756;9.246;2023-04-24T03:33:24;9.90;99.90
55648;DHT22;45266;48.756;9.246;2023-04-24T03:34:26;9.90;99.90
55648;DHT22;45266;48.756;9.246;2023-04-24T03:35:28;9.80;99.90
55648;DHT22;45266;48.756;9.246;2023-04-24T03:36:30;9.90;99.90
55648;DHT22;45266;48.756;9.246;2023-04-24T03:37:32;9.80;99.90
55648;DHT22;45266;48.756;9.246;2023-04-24T03:38:34;9.80;99.90
55648;DHT22;45266;48.756;9.246;2023-04-24T03:39:36;9.80;99.90
55648;DHT22;45266;48.756;9.246;2023-04-24T03:40:38;9.80;99.90
55648;DHT22;45266;48.756;9.246;2023-04-24T03:41:39;9.80;99.90
55648;DHT22;45266;48.756;9.246;2023-04-24T03:42:41;9.60;99.90
55648;DHT22;45266;48.756;9.246;2023-04-24T03:43:43;9.70;99.90
55648;DHT22;45266;48.756;9.246;2023-04-24T03:44:45;9.70;99.90
55648;DHT22;45266;48.756;9.246;2023-04-24T03:45:46;9.70;99.90
55648;DHT22;45266;48.756;9.246;2023-04-24T03:46:48;9.70;99.90
55648;DHT22;45266;48.756;9.246;2023-04-24T03:47:50;9.70;99.90
55648;DHT22;45266;48.756;9.246;2023-04-24T03:48:52;9.70;99.90
55648;DHT22;45266;48.756;9.246;2023-04-24T03:49:54;9.70;99.90
55648;DHT22;45266;48.756;9.246;2023-04-24T03:50:57;9.70;99.90
55648;DHT22;45266;48.756;9.246;2023-04-24T03:51:59;9.60;99.90
55648;DHT22;45266;48.756;9.246;2023-04-24T03:53:00;9.60;99.90
55648;DHT22;45266;48.756;9.246;2023-04-24T03:54:02;9.60;99.90
55648;DHT22;45266;48.756;9.246;2023-04-24T03:55:05;9.60;99.90
55648;DHT22;45266;48.756;9.246;2023-04-24T03:56:07;9.60;99.90
55648;DHT22;45266;48.756;9.246;2023-04-24T03:57:10;9.60;99.90
55648;DHT22;45266;48.756;9.246;2023-04-24T03:58:11;9.60;99.90
55648;DHT22;45266;48.756;9.246;2023-04-24T03:59:15;9.50;99.90
55648;DHT22;45266;48.756;9.246;2023-04-24T04:00:16;9.50;99.90
55648;DHT22;45266;48.756;9.246;2023-04-24T04:01:20;9.50;99.90
55648;DHT22;45266;48.756;9.246;2023-04-24T04:02:22;9.50;99.90
55648;DHT22;45266;48.756;9.246;2023-04-24T04:03:24;9.50;99.90
55648;DHT22;45266;48.756;9.246;2023-04-24T04:04:27;9.40;99.90
55648;DHT22;45266;48.756;9.246;2023-04-24T04:05:29;9.30;99.90
55648;DHT22;45266;48.756;9.246;2023-04-24T04:06:31;9.30;99.90
55648;DHT22;45266;48.756;9.246;2023-04-24T04:07:34;9.30;99.90
55648;DHT22;45266;48.756;9.246;2023-04-24T04:08:36;9.30;99.90
55648;DHT22;45266;48.756;9.246;2023-04-24T04:09:37;9.30;99.90
55648;DHT22;45266;48.756;9.246;2023-04-24T04:10:39;9.30;99.90
55648;DHT22;45266;48.756;9.246;2023-04-24T04:11:41;9.20;99.90
55648;DHT22;45266;48.756;9.246;2023-04-24T04:12:43;9.20;99.90
55648;DHT22;45266;48.756;9.246;2023-04-24T04:13:44;9.20;99.90
55648;DHT22;45266;48.756;9.246;2023-04-24T04:14:49;9.20;99.90
55648;DHT22;45266;48.756;9.246;2023-04-24T04:15:51;9.20;99.90
55648;DHT22;45266;48.756;9.246;2023-04-24T04:16:52;9.10;99.90
55648;DHT22;45266;48.756;9.246;2023-04-24T04:17:55;9.10;99.90
55648;DHT22;45266;48.756;9.246;2023-04-24T04:18:57;9.10;99.90
55648;DHT22;45266;48.756;9.246;2023-04-24T04:19:59;9.10;99.90
55648;DHT22;45266;48.756;9.246;2023-04-24T04:21:01;9.10;99.90
55648;DHT22;45266;48.756;9.246;2023-04-24T04:22:03;9.10;99.90
55648;DHT22;45266;48.756;9.246;2023-04-24T04:23:05;9.10;99.90
55648;DHT22;45266;48.756;9.246;2023-04-24T04:24:06;9.10;99.90
55648;DHT22;45266;48.756;9.246;2023-04-24T04:25:08;9.10;99.90
55648;DHT22;45266;48.756;9.246;2023-04-24T04:26:11;9.20;99.90
55648;DHT22;45266;48.756;9.246;2023-04-24T04:27:13;9.20;99.90
55648;DHT22;45266;48.756;9.246;2023-04-24T04:28:15;9.20;99.90
55648;DHT22;45266;48.756;9.246;2023-04-24T04:29:17;9.20;99.90
55648;DHT22;45266;48.756;9.246;2023-04-24T04:30:22;9.20;99.90
55648;DHT22;45266;48.756;9.246;2023-04-24T04:31:25;9.20;99.90
55648;DHT22;45266;48.756;9.246;2023-04-24T04:32:26;9.30;99.90
55648;DHT22;45266;48.756;9.246;2023-04-24T04:33:28;9.30;99.90
55648;DHT22;45266;48.756;9.246;2023-04-24T04:34:30;9.30;99.90
55648;DHT22;45266;48.756;9.246;2023-04-24T04:35:32;9.30;99.90
55648;DHT22;45266;48.756;9.246;2023-04-24T04:36:34;9.30;99.90
55648;DHT22;45266;48.756;9.246;2023-04-24T04:37:38;9.30;99.90
55648;DHT22;45266;48.756;9.246;2023-04-24T04:38:41;9.40;99.90
55648;DHT22;45266;48.756;9.246;2023-04-24T04:39:44;9.40;99.90
55648;DHT22;45266;48.756;9.246;2023-04-24T04:40:46;9.50;99.90
55648;DHT22;45266;48.756;9.246;2023-04-24T04:41:48;9.40;99.90
55648;DHT22;45266;48.756;9.246;2023-04-24T04:42:50;9.40;99.90
55648;DHT22;45266;48.756;9.246;2023-04-24T04:43:54;9.50;99.90
55648;DHT22;45266;48.756;9.246;2023-04-24T04:44:56;9.50;99.90
55648;DHT22;45266;48.756;9.246;2023-04-24T04:45:58;9.50;99.90
55648;DHT22;45266;48.756;9.246;2023-04-24T04:47:02;9.50;99.90
55648;DHT22;45266;48.756;9.246;2023-04-24T04:48:07;9.60;99.90
55648;DHT22;45266;48.756;9.246;2023-04-24T04:49:10;9.60;99.90
55648;DHT22;45266;48.756;9.246;2023-04-24T04:50:12;9.60;99.90
55648;DHT22;45266;48.756;9.246;2023-04-24T04:51:14;9.60;99.90
55648;DHT22;45266;48.756;9.246;2023-04-24T04:52:15;9.70;99.90
55648;DHT22;45266;48.756;9.246;2023-04-24T04:53:18;9.60;99.90
55648;DHT22;45266;48.756;9.246;2023-04-24T04:54:20;9.60;99.90
55648;DHT22;45266;48.756;9.246;2023-04-24T04:55:22;9.60;99.90
55648;DHT22;45266;48.756;9.246;2023-04-24T04:56:24;9.60;99.90
55648;DHT22;45266;48.756;9.246;2023-04-24T04:57:26;9.60;99.90
55648;DHT22;45266;48.756;9.246;2023-04-24T04:58:28;9.60;99.90
55648;DHT22;45266;48.756;9.246;2023-04-24T04:59:29;9.60;99.90
55648;DHT22;45266;48.756;9.246;2023-04-24T05:00:31;9.60;99.90
55648;DHT22;45266;48.756;9.246;2023-04-24T05:01:37;9.50;99.90
55648;DHT22;45266;48.756;9.246;2023-04-24T05:02:39;9.60;99.90
55648;DHT22;45266;48.756;9.246;2023-04-24T05:03:42;9.60;99.90
55648;DHT22;45266;48.756;9.246;2023-04-24T05:04:44;9.50;99.90
55648;DHT22;45266;48.756;9.246;2023-04-24T05:05:47;9.60;99.90
55648;DHT22;45266;48.756;9.246;2023-04-24T05:06:49;9.60;99.90
55648;DHT22;45266;48.756;9.246;2023-04-24T05:07:52;9.60;99.90
55648;DHT22;45266;48.756;9.246;2023-04-24T05:08:54;9.60;99.90
55648;DHT22;45266;48.756;9.246;2023-04-24T05:09:59;9.60;99.90
55648;DHT22;45266;48.756;9.246;2023-04-24T05:11:00;9.50;99.90
55648;DHT22;45266;48.756;9.246;2023-04-24T05:12:03;9.50;99.90
55648;DHT22;45266;48.756;9.246;2023-04-24T05:13:05;9.50;99.90
55648;DHT22;45266;48.756;9.246;2023-04-24T05:14:06;9.50;99.90
55648;DHT22;45266;48.756;9.246;2023-04-24T05:15:08;9.50;99.90
55648;DHT22;45266;48.756;9.246;2023-04-24T05:16:10;9.50;99.90
55648;DHT22;45266;48.756;9.246;2023-04-24T05:17:12;9.50;99.90
55648;DHT22;45266;48.756;9.246;2023-04-24T05:18:15;9.40;99.90
55648;DHT22;45266;48.756;9.246;2023-04-24T05:19:17;9.40;99.90
55648;DHT22;45266;48.756;9.246;2023-04-24T05:20:18;9.50;99.90
55648;DHT22;45266;48.756;9.246;2023-04-24T05:21:20;9.40;99.90
55648;DHT22;45266;48.756;9.246;2023-04-24T05:22:22;9.40;99.90
55648;DHT22;45266;48.756;9.246;2023-04-24T05:23:25;9.40;99.90
55648;DHT22;45266;48.756;9.246;2023-04-24T05:24:27;9.40;99.90
55648;DHT22;45266;48.756;9.246;2023-04-24T05:25:29;9.40;99.90
55648;DHT22;45266;48.756;9.246;2023-04-24T05:26:31;9.40;99.90
55648;DHT22;45266;48.756;9.246;2023-04-24T05:27:33;9.40;99.90
55648;DHT22;45266;48.756;9.246;2023-04-24T05:28:35;9.40;99.90
55648;DHT22;45266;48.756;9.246;2023-04-24T05:29:38;9.40;99.90
55648;DHT22;45266;48.756;9.246;2023-04-24T05:30:40;9.40;99.90
55648;DHT22;45266;48.756;9.246;2023-04-24T05:31:42;9.40;99.90
55648;DHT22;45266;48.756;9.246;2023-04-24T05:32:45;9.40;99.90
55648;DHT22;45266;48.756;9.246;2023-04-24T05:33:46;9.40;99.90
55648;DHT22;45266;48.756;9.246;2023-04-24T05:34:48;9.40;99.90
55648;DHT22;45266;48.756;9.246;2023-04-24T05:35:50;9.40;99.90
55648;DHT22;45266;48.756;9.246;2023-04-24T05:36:52;9.40;99.90
55648;DHT22;45266;48.756;9.246;2023-04-24T05:37:53;9.40;99.90
55648;DHT22;45266;48.756;9.246;2023-04-24T05:38:55;9.40;99.90
55648;DHT22;45266;48.756;9.246;2023-04-24T05:39:57;9.30;99.90
55648;DHT22;45266;48.756;9.246;2023-04-24T05:40:59;9.40;99.90
55648;DHT22;45266;48.756;9.246;2023-04-24T05:42:01;9.40;99.90
55648;DHT22;45266;48.756;9.246;2023-04-24T05:43:04;9.40;99.90
55648;DHT22;45266;48.756;9.246;2023-04-24T05:44:06;9.40;99.90
55648;DHT22;45266;48.756;9.246;2023-04-24T05:45:08;9.40;99.90
55648;DHT22;45266;48.756;9.246;2023-04-24T05:46:11;9.40;99.90
55648;DHT22;45266;48.756;9.246;2023-04-24T05:47:13;9.50;99.90
55648;DHT22;45266;48.756;9.246;2023-04-24T05:48:15;9.50;99.90
55648;DHT22;45266;48.756;9.246;2023-04-24T05:49:17;9.50;99.90
55648;DHT22;45266;48.756;9.246;2023-04-24T05:50:19;9.50;99.90
55648;DHT22;45266;48.756;9.246;2023-04-24T05:51:21;9.50;99.90
55648;DHT22;45266;48.756;9.246;2023-04-24T05:52:23;9.50;99.90
55648;DHT22;45266;48.756;9.246;2023-04-24T05:53:24;9.60;99.90
55648;DHT22;45266;48.756;9.246;2023-04-24T05:54:26;9.60;99.90
55648;DHT22;45266;48.756;9.246;2023-04-24T05:55:28;9.60;99.90
55648;DHT22;45266;48.756;9.246;2023-04-24T05:56:30;9.70;99.90
55648;DHT22;45266;48.756;9.246;2023-04-24T05:57:32;9.70;99.90
55648;DHT22;45266;48.756;9.246;2023-04-24T05:58:34;9.70;99.90
55648;DHT22;45266;48.756;9.246;2023-04-24T05:59:37;9.70;99.90
55648;DHT22;45266;48.756;9.246;2023-04-24T06:00:42;9.80;99.90
55648;DHT22;45266;48.756;9.246;2023-04-24T06:01:44;9.80;99.90
55648;DHT22;45266;48.756;9.246;2023-04-24T06:02:46;9.80;99.90
55648;DHT22;45266;48.756;9.246;2023-04-24T06:03:49;9.80;99.90
55648;DHT22;45266;48.756;9.246;2023-04-24T06:04:51;9.80;99.90
55648;DHT22;45266;48.756;9.246;2023-04-24T06:05:53;9.80;99.90
55648;DHT22;45266;48.756;9.246;2023-04-24T06:06:55;9.80;99.90
55648;DHT22;45266;48.756;9.246;2023-04-24T06:07:58;9.70;99.90
55648;DHT22;45266;48.756;9.246;2023-04-24T06:09:00;9.80;99.90
55648;DHT22;45266;48.756;9.246;2023-04-24T06:10:01;9.80;99.90
55648;DHT22;45266;48.756;9.246;2023-04-24T06:11:03;9.80;99.90
55648;DHT22;45266;48.756;9.246;2023-04-24T06:12:05;9.80;99.90
55648;DHT22;45266;48.756;9.246;2023-04-24T06:13:09;9.80;99.90
55648;DHT22;45266;48.756;9.246;2023-04-24T06:14:11;9.80;99.90
55648;DHT22;45266;48.756;9.246;2023-04-24T06:15:13;9.80;99.90
55648;DHT22;45266;48.756;9.246;2023-04-24T06:16:15;9.80;99.90
55648;DHT22;45266;48.756;9.246;2023-04-24T06:17:17;9.70;99.90
55648;DHT22;45266;48.756;9.246;2023-04-24T06:18:19;9.70;99.90
55648;DHT22;45266;48.756;9.246;2023-04-24T06:19:20;9.70;99.90
55648;DHT22;45266;48.756;9.246;2023-04-24T06:20:23;9.80;99.90
55648;DHT22;45266;48.756;9.246;2023-04-24T06:21:24;9.80;99.90
55648;DHT22;45266;48.756;9.246;2023-04-24T06:22:27;9.80;99.90
55648;DHT22;45266;48.756;9.246;2023-04-24T06:23:29;9.90;99.90
55648;DHT22;45266;48.756;9.246;2023-04-24T06:24:31;9.90;99.90
55648;DHT22;45266;48.756;9.246;2023-04-24T06:25:32;10.00;99.90
55648;DHT22;45266;48.756;9.246;2023-04-24T06:26:35;10.00;99.90
55648;DHT22;45266;48.756;9.246;2023-04-24T06:27:37;10.10;99.90
55648;DHT22;45266;48.756;9.246;2023-04-24T06:28:38;10.10;99.90
55648;DHT22;45266;48.756;9.246;2023-04-24T06:29:40;10.20;99.90
55648;DHT22;45266;48.756;9.246;2023-04-24T06:30:43;10.20;99.90
55648;DHT22;45266;48.756;9.246;2023-04-24T06:31:45;10.30;99.90
55648;DHT22;45266;48.756;9.246;2023-04-24T06:32:47;10.40;99.90
55648;DHT22;45266;48.756;9.246;2023-04-24T06:33:49;10.40;99.90
55648;DHT22;45266;48.756;9.246;2023-04-24T06:34:52;10.50;99.90
55648;DHT22;45266;48.756;9.246;2023-04-24T06:35:54;10.50;99.90
55648;DHT22;45266;48.756;9.246;2023-04-24T06:36:56;10.60;99.90
55648;DHT22;45266;48.756;9.246;2023-04-24T06:37:58;10.60;99.90
55648;DHT22;45266;48.756;9.246;2023-04-24T06:39:00;10.70;99.90